sensor_id;sensor_type;location;lat;lon;timestamp;pressure;altitude;pressure_sealevel;temperature;humidity
46007;BME280;31738;50.188;8.524;2024-01-27T00:01:24;100625.44;;;7.38;74.19
46007;BME280;31738;50.188;8.524;2024-01-27T00:03:50;100636.31;;;7.36;74.04
46007;BME280;31738;50.188;8.524;2024-01-27T00:06:15;100637.56;;;7.34;73.39
46007;BME280;31738;50.188;8.524;2024-01-27T00:08:41;100642.91;;;7.34;73.21
46007;BME280;31738;50.188;8.524;2024-01-27T00:11:06;100639.41;;;7.33;73.00
46007;BME280;31738;50.188;8.524;2024-01-27T00:13:32;100643.09;;;7.32;73.17
46007;BME280;31738;50.188;8.524;2024-01-27T00:15:57;100640.84;;;7.29;72.80
46007;BME280;31738;50.188;8.524;2024-01-27T00:18:23;100645.56;;;7.27;73.33
46007;BME280;31738;50.188;8.524;2024-01-27T00:20:48;100651.94;;;7.26;72.91
46007;BME280;31738;50.188;8.524;2024-01-27T00:23:14;100652.94;;;7.25;73.39
46007;BME280;31738;50.188;8.524;2024-01-27T00:25:39;100657.06;;;7.21;73.33
46007;BME280;31738;50.188;8.524;2024-01-27T00:28:05;100655.44;;;7.20;73.15
46007;BME280;31738;50.188;8.524;2024-01-27T00:30:30;100660.13;;;7.18;74.11
46007;BME280;31738;50.188;8.524;2024-01-27T00:32:56;100663.41;;;7.14;73.67
46007;BME280;31738;50.188;8.524;2024-01-27T00:35:21;100663.63;;;7.12;74.11
46007;BME280;31738;50.188;8.524;2024-01-27T00:37:47;100655.81;;;7.11;74.01
46007;BME280;31738;50.188;8.524;2024-01-27T00:40:13;100658.69;;;7.09;74.31
46007;BME280;31738;50.188;8.524;2024-01-27T00:42:38;100651.72;;;7.08;74.62
46007;BME280;31738;50.188;8.524;2024-01-27T00:45:05;100649.25;;;7.07;74.93
46007;BME280;31738;50.188;8.524;2024-01-27T00:47:30;100655.41;;;7.07;74.37
46007;BME280;31738;50.188;8.524;2024-01-27T00:49:56;100662.81;;;7.05;74.80
46007;BME280;31738;50.188;8.524;2024-01-27T00:52:22;100648.84;;;7.03;75.06
46007;BME280;31738;50.188;8.524;2024-01-27T00:54:48;100649.66;;;6.97;75.19
46007;BME280;31738;50.188;8.524;2024-01-27T00:57:13;100649.22;;;6.93;74.97
46007;BME280;31738;50.188;8.524;2024-01-27T00:59:39;100653.34;;;6.89;75.08
46007;BME280;31738;50.188;8.524;2024-01-27T01:02:06;100654.53;;;6.87;74.87
46007;BME280;31738;50.188;8.524;2024-01-27T01:04:32;100671.78;;;6.84;74.86
46007;BME280;31738;50.188;8.524;2024-01-27T01:06:57;100667.69;;;6.82;75.09
46007;BME280;31738;50.188;8.524;2024-01-27T01:09:23;100667.06;;;6.80;75.10
46007;BME280;31738;50.188;8.524;2024-01-27T01:11:48;100671.75;;;6.78;75.48
46007;BME280;31738;50.188;8.524;2024-01-27T01:14:14;100678.31;;;6.75;75.51
46007;BME280;31738;50.188;8.524;2024-01-27T01:16:40;100672.16;;;6.75;75.14
46007;BME280;31738;50.188;8.524;2024-01-27T01:19:06;100665.38;;;6.72;75.32
46007;BME280;31738;50.188;8.524;2024-01-27T01:21:31;100670.09;;;6.70;75.34
46007;BME280;31738;50.188;8.524;2024-01-27T01:23:57;100664.53;;;6.65;75.54
46007;BME280;31738;50.188;8.524;2024-01-27T01:26:23;100664.72;;;6.64;75.69
46007;BME280;31738;50.188;8.524;2024-01-27T01:28:49;100673.75;;;6.63;75.86
46007;BME280;31738;50.188;8.524;2024-01-27T01:31:14;100680.13;;;6.62;75.99
46007;BME280;31738;50.188;8.524;2024-01-27T01:33:40;100690.16;;;6.60;76.17
46007;BME280;31738;50.188;8.524;2024-01-27T01:36:05;100684.19;;;6.58;75.73
46007;BME280;31738;50.188;8.524;2024-01-27T01:38:30;100695.91;;;6.57;76.11
46007;BME280;31738;50.188;8.524;2024-01-27T01:40:56;100693.81;;;6.52;76.06
46007;BME280;31738;50.188;8.524;2024-01-27T01:43:21;100691.34;;;6.51;76.32
46007;BME280;31738;50.188;8.524;2024-01-27T01:45:47;100695.06;;;6.50;76.25
46007;BME280;31738;50.188;8.524;2024-01-27T01:48:13;100697.88;;;6.48;75.88
46007;BME280;31738;50.188;8.524;2024-01-27T01:50:38;100690.09;;;6.47;76.40
46007;BME280;31738;50.188;8.524;2024-01-27T01:53:05;100684.34;;;6.43;76.19
46007;BME280;31738;50.188;8.524;2024-01-27T01:55:31;100680.63;;;6.38;76.29
46007;BME280;31738;50.188;8.524;2024-01-27T01:57:56;100696.41;;;6.33;76.00
46007;BME280;31738;50.188;8.524;2024-01-27T02:00:22;100697.78;;;6.22;76.42
46007;BME280;31738;50.188;8.524;2024-01-27T02:02:47;100687.09;;;6.16;76.50
46007;BME280;31738;50.188;8.524;2024-01-27T02:05:13;100687.50;;;6.13;76.69
46007;BME280;31738;50.188;8.524;2024-01-27T02:07:39;100688.88;;;6.09;76.96
46007;BME280;31738;50.188;8.524;2024-01-27T02:10:06;100691.34;;;6.04;76.77
46007;BME280;31738;50.188;8.524;2024-01-27T02:12:34;100684.94;;;5.98;76.73
46007;BME280;31738;50.188;8.524;2024-01-27T02:15:00;100694.78;;;5.98;76.99
46007;BME280;31738;50.188;8.524;2024-01-27T02:17:25;100688.19;;;5.94;77.33
46007;BME280;31738;50.188;8.524;2024-01-27T02:19:50;100684.06;;;5.91;77.57
46007;BME280;31738;50.188;8.524;2024-01-27T02:22:16;100684.06;;;5.91;77.11
46007;BME280;31738;50.188;8.524;2024-01-27T02:24:41;100686.94;;;5.90;77.57
46007;BME280;31738;50.188;8.524;2024-01-27T02:27:07;100683.44;;;5.89;77.13
46007;BME280;31738;50.188;8.524;2024-01-27T02:29:32;100688.97;;;5.88;77.35
46007;BME280;31738;50.188;8.524;2024-01-27T02:31:58;100688.53;;;5.84;77.29
46007;BME280;31738;50.188;8.524;2024-01-27T02:34:23;100694.59;;;5.78;77.09
46007;BME280;31738;50.188;8.524;2024-01-27T02:36:49;100698.03;;;5.72;77.24
46007;BME280;31738;50.188;8.524;2024-01-27T02:39:14;100683.03;;;5.65;77.54
46007;BME280;31738;50.188;8.524;2024-01-27T02:41:40;100685.25;;;5.61;77.52
46007;BME280;31738;50.188;8.524;2024-01-27T02:44:05;100699.13;;;5.57;77.52
46007;BME280;31738;50.188;8.524;2024-01-27T02:46:31;100696.06;;;5.53;77.67
46007;BME280;31738;50.188;8.524;2024-01-27T02:48:56;100700.94;;;5.50;78.10
46007;BME280;31738;50.188;8.524;2024-01-27T02:51:22;100695.16;;;5.46;77.67
46007;BME280;31738;50.188;8.524;2024-01-27T02:53:47;100691.91;;;5.44;78.24
46007;BME280;31738;50.188;8.524;2024-01-27T02:56:13;100706.19;;;5.43;78.12
46007;BME280;31738;50.188;8.524;2024-01-27T02:58:38;100697.16;;;5.38;77.90
46007;BME280;31738;50.188;8.524;2024-01-27T03:01:04;100708.19;;;5.35;78.18
46007;BME280;31738;50.188;8.524;2024-01-27T03:03:29;100705.25;;;5.29;78.00
46007;BME280;31738;50.188;8.524;2024-01-27T03:05:55;100703.16;;;5.25;77.82
46007;BME280;31738;50.188;8.524;2024-01-27T03:08:20;100690.44;;;5.20;78.42
46007;BME280;31738;50.188;8.524;2024-01-27T03:10:46;100697.78;;;5.18;78.42
46007;BME280;31738;50.188;8.524;2024-01-27T03:13:12;100697.34;;;5.15;78.33
46007;BME280;31738;50.188;8.524;2024-01-27T03:15:37;100703.84;;;5.12;78.55
46007;BME280;31738;50.188;8.524;2024-01-27T03:18:03;100698.09;;;5.09;78.68
46007;BME280;31738;50.188;8.524;2024-01-27T03:20:29;100695.00;;;5.05;78.92
46007;BME280;31738;50.188;8.524;2024-01-27T03:22:56;100700.06;;;5.00;78.62
46007;BME280;31738;50.188;8.524;2024-01-27T03:25:22;100705.75;;;4.97;78.52
46007;BME280;31738;50.188;8.524;2024-01-27T03:27:48;100695.50;;;4.94;78.90
46007;BME280;31738;50.188;8.524;2024-01-27T03:30:13;100692.19;;;4.92;79.18
46007;BME280;31738;50.188;8.524;2024-01-27T03:32:39;100689.31;;;4.87;79.06
46007;BME280;31738;50.188;8.524;2024-01-27T03:35:04;100698.47;;;4.85;79.10
46007;BME280;31738;50.188;8.524;2024-01-27T03:37:30;100690.03;;;4.81;78.77
46007;BME280;31738;50.188;8.524;2024-01-27T03:39:55;100689.41;;;4.79;79.18
46007;BME280;31738;50.188;8.524;2024-01-27T03:42:21;100685.47;;;4.75;79.14
46007;BME280;31738;50.188;8.524;2024-01-27T03:44:46;100692.00;;;4.73;79.21
46007;BME280;31738;50.188;8.524;2024-01-27T03:47:13;100689.72;;;4.70;79.16
46007;BME280;31738;50.188;8.524;2024-01-27T03:49:38;100688.88;;;4.69;79.39
46007;BME280;31738;50.188;8.524;2024-01-27T03:52:04;100686.59;;;4.66;79.55
46007;BME280;31738;50.188;8.524;2024-01-27T03:54:29;100686.16;;;4.63;79.79
46007;BME280;31738;50.188;8.524;2024-01-27T03:56:55;100689.34;;;4.58;79.70
46007;BME280;31738;50.188;8.524;2024-01-27T03:59:20;100694.06;;;4.56;79.42
46007;BME280;31738;50.188;8.524;2024-01-27T04:01:47;100695.22;;;4.54;79.78
46007;BME280;31738;50.188;8.524;2024-01-27T04:04:12;100692.13;;;4.50;79.83
46007;BME280;31738;50.188;8.524;2024-01-27T04:06:41;100694.97;;;4.49;79.79
46007;BME280;31738;50.188;8.524;2024-01-27T04:09:07;100704.78;;;4.48;80.18
46007;BME280;31738;50.188;8.524;2024-01-27T04:11:36;100707.81;;;4.45;80.10
46007;BME280;31738;50.188;8.524;2024-01-27T04:14:02;100716.97;;;4.43;79.94
46007;BME280;31738;50.188;8.524;2024-01-27T04:16:28;100710.19;;;4.40;79.90
46007;BME280;31738;50.188;8.524;2024-01-27T04:18:54;100704.44;;;4.37;80.05
46007;BME280;31738;50.188;8.524;2024-01-27T04:21:19;100703.78;;;4.35;80.00
46007;BME280;31738;50.188;8.524;2024-01-27T04:23:45;100704.81;;;4.34;79.73
46007;BME280;31738;50.188;8.524;2024-01-27T04:26:10;100701.31;;;4.33;80.35
46007;BME280;31738;50.188;8.524;2024-01-27T04:28:36;100703.78;;;4.35;79.75
46007;BME280;31738;50.188;8.524;2024-01-27T04:31:02;100700.31;;;4.34;80.31
46007;BME280;31738;50.188;8.524;2024-01-27T04:33:28;100700.50;;;4.33;79.78
46007;BME280;31738;50.188;8.524;2024-01-27T04:35:53;100706.16;;;4.30;80.41
46007;BME280;31738;50.188;8.524;2024-01-27T04:38:19;100714.31;;;4.28;80.42
46007;BME280;31738;50.188;8.524;2024-01-27T04:40:44;100714.69;;;4.25;79.96
46007;BME280;31738;50.188;8.524;2024-01-27T04:43:14;100710.22;;;4.26;80.64
46007;BME280;31738;50.188;8.524;2024-01-27T04:45:40;100718.38;;;4.24;80.11
46007;BME280;31738;50.188;8.524;2024-01-27T04:48:05;100717.72;;;4.22;80.51
46007;BME280;31738;50.188;8.524;2024-01-27T04:50:31;100715.44;;;4.19;80.62
46007;BME280;31738;50.188;8.524;2024-01-27T04:52:56;100718.38;;;4.24;80.22
46007;BME280;31738;50.188;8.524;2024-01-27T04:55:22;100717.34;;;4.25;80.01
46007;BME280;31738;50.188;8.524;2024-01-27T04:57:47;100712.78;;;4.19;80.36
46007;BME280;31738;50.188;8.524;2024-01-27T05:00:13;100714.16;;;4.15;80.25
46007;BME280;31738;50.188;8.524;2024-01-27T05:02:40;100726.78;;;4.13;80.37
46007;BME280;31738;50.188;8.524;2024-01-27T05:05:06;100726.13;;;4.11;80.93
46007;BME280;31738;50.188;8.524;2024-01-27T05:07:32;100730.16;;;4.07;80.22
46007;BME280;31738;50.188;8.524;2024-01-27T05:09:57;100724.56;;;4.02;80.52
46007;BME280;31738;50.188;8.524;2024-01-27T05:12:23;100725.78;;;4.00;80.71
46007;BME280;31738;50.188;8.524;2024-01-27T05:14:49;100723.66;;;3.95;80.31
46007;BME280;31738;50.188;8.524;2024-01-27T05:17:14;100724.03;;;3.92;80.54
46007;BME280;31738;50.188;8.524;2024-01-27T05:19:39;100720.06;;;3.88;81.17
46007;BME280;31738;50.188;8.524;2024-01-27T05:22:05;100725.94;;;3.84;80.36
46007;BME280;31738;50.188;8.524;2024-01-27T05:24:30;100729.97;;;3.80;81.05
46007;BME280;31738;50.188;8.524;2024-01-27T05:26:56;100736.44;;;3.77;81.28
46007;BME280;31738;50.188;8.524;2024-01-27T05:29:21;100736.78;;;3.74;81.39
46007;BME280;31738;50.188;8.524;2024-01-27T05:31:47;100739.63;;;3.73;80.82
46007;BME280;31738;50.188;8.524;2024-01-27T05:34:13;100738.34;;;3.69;81.35
46007;BME280;31738;50.188;8.524;2024-01-27T05:36:38;100738.53;;;3.67;80.81
46007;BME280;31738;50.188;8.524;2024-01-27T05:39:04;100739.91;;;3.63;80.52
46007;BME280;31738;50.188;8.524;2024-01-27T05:41:30;100747.22;;;3.61;80.88
46007;BME280;31738;50.188;8.524;2024-01-27T05:43:56;100735.13;;;3.59;81.19
46007;BME280;31738;50.188;8.524;2024-01-27T05:46:24;100735.94;;;3.59;81.50
46007;BME280;31738;50.188;8.524;2024-01-27T05:48:49;100736.31;;;3.56;81.28
46007;BME280;31738;50.188;8.524;2024-01-27T05:51:16;100736.00;;;3.51;81.02
46007;BME280;31738;50.188;8.524;2024-01-27T05:53:41;100734.72;;;3.47;81.65
46007;BME280;31738;50.188;8.524;2024-01-27T05:56:07;100735.06;;;3.44;80.90
46007;BME280;31738;50.188;8.524;2024-01-27T05:58:32;100744.06;;;3.43;81.41
46007;BME280;31738;50.188;8.524;2024-01-27T06:00:58;100750.34;;;3.42;81.18
46007;BME280;31738;50.188;8.524;2024-01-27T06:03:23;100749.72;;;3.40;81.24
46007;BME280;31738;50.188;8.524;2024-01-27T06:05:49;100751.53;;;3.39;81.25
46007;BME280;31738;50.188;8.524;2024-01-27T06:08:14;100751.72;;;3.38;81.45
46007;BME280;31738;50.188;8.524;2024-01-27T06:10:40;100749.75;;;3.32;81.69
46007;BME280;31738;50.188;8.524;2024-01-27T06:13:05;100749.09;;;3.30;81.21
46007;BME280;31738;50.188;8.524;2024-01-27T06:15:34;100749.47;;;3.27;81.84
46007;BME280;31738;50.188;8.524;2024-01-27T06:17:59;100746.19;;;3.25;81.28
46007;BME280;31738;50.188;8.524;2024-01-27T06:20:25;100749.16;;;3.22;81.85
46007;BME280;31738;50.188;8.524;2024-01-27T06:22:50;100754.63;;;3.20;81.83
46007;BME280;31738;50.188;8.524;2024-01-27T06:25:17;100750.53;;;3.18;81.52
46007;BME280;31738;50.188;8.524;2024-01-27T06:27:43;100757.81;;;3.16;81.43
46007;BME280;31738;50.188;8.524;2024-01-27T06:30:09;100767.13;;;3.12;81.68
46007;BME280;31738;50.188;8.524;2024-01-27T06:32:36;100771.94;;;3.08;81.49
46007;BME280;31738;50.188;8.524;2024-01-27T06:35:02;100769.47;;;3.07;81.86
46007;BME280;31738;50.188;8.524;2024-01-27T06:37:28;100781.25;;;3.04;81.90
46007;BME280;31738;50.188;8.524;2024-01-27T06:39:53;100774.03;;;2.98;81.79
46007;BME280;31738;50.188;8.524;2024-01-27T06:42:19;100780.31;;;2.97;81.62
46007;BME280;31738;50.188;8.524;2024-01-27T06:44:44;100783.13;;;2.96;81.94
46007;BME280;31738;50.188;8.524;2024-01-27T06:47:10;100774.53;;;2.94;81.90
46007;BME280;31738;50.188;8.524;2024-01-27T06:49:35;100771.22;;;2.92;81.53
46007;BME280;31738;50.188;8.524;2024-01-27T06:52:01;100769.94;;;2.88;81.44
46007;BME280;31738;50.188;8.524;2024-01-27T06:54:26;100767.63;;;2.85;82.15
46007;BME280;31738;50.188;8.524;2024-01-27T06:56:52;100761.66;;;2.83;81.54
46007;BME280;31738;50.188;8.524;2024-01-27T06:59:17;100769.63;;;2.83;82.06
46007;BME280;31738;50.188;8.524;2024-01-27T07:01:47;100770.63;;;2.82;82.19
46007;BME280;31738;50.188;8.524;2024-01-27T07:04:14;100772.63;;;2.80;82.20
46007;BME280;31738;50.188;8.524;2024-01-27T07:06:39;100766.03;;;2.76;82.30
46007;BME280;31738;50.188;8.524;2024-01-27T07:09:05;100774.78;;;2.76;82.14
46007;BME280;31738;50.188;8.524;2024-01-27T07:11:32;100778.63;;;2.74;81.62
46007;BME280;31738;50.188;8.524;2024-01-27T07:13:58;100774.31;;;2.73;82.33
46007;BME280;31738;50.188;8.524;2024-01-27T07:16:24;100777.94;;;2.72;81.71
46007;BME280;31738;50.188;8.524;2024-01-27T07:18:50;100782.44;;;2.71;81.88
46007;BME280;31738;50.188;8.524;2024-01-27T07:21:16;100779.94;;;2.70;82.13
46007;BME280;31738;50.188;8.524;2024-01-27T07:23:46;100782.59;;;2.70;82.13
46007;BME280;31738;50.188;8.524;2024-01-27T07:26:11;100786.25;;;2.69;82.00
46007;BME280;31738;50.188;8.524;2024-01-27T07:28:37;100787.88;;;2.70;81.79
46007;BME280;31738;50.188;8.524;2024-01-27T07:31:03;100786.25;;;2.69;82.41
46007;BME280;31738;50.188;8.524;2024-01-27T07:33:29;100785.41;;;2.68;81.77
46007;BME280;31738;50.188;8.524;2024-01-27T07:35:54;100793.19;;;2.70;81.95
46007;BME280;31738;50.188;8.524;2024-01-27T07:38:20;100782.59;;;2.70;82.00
46007;BME280;31738;50.188;8.524;2024-01-27T07:40:46;100776.97;;;2.73;82.24
46007;BME280;31738;50.188;8.524;2024-01-27T07:43:11;100781.94;;;2.76;82.59
46007;BME280;31738;50.188;8.524;2024-01-27T07:45:37;100785.22;;;2.78;82.05
46007;BME280;31738;50.188;8.524;2024-01-27T07:48:02;100787.34;;;2.82;82.11
46007;BME280;31738;50.188;8.524;2024-01-27T07:50:28;100784.16;;;2.87;82.08
46007;BME280;31738;50.188;8.524;2024-01-27T07:52:54;100769.09;;;2.87;82.32
46007;BME280;31738;50.188;8.524;2024-01-27T07:55:19;100761.63;;;2.91;82.27
46007;BME280;31738;50.188;8.524;2024-01-27T07:57:45;100769.25;;;2.94;82.23
46007;BME280;31738;50.188;8.524;2024-01-27T08:00:10;100761.59;;;2.99;82.50
46007;BME280;31738;50.188;8.524;2024-01-27T08:02:36;100764.53;;;3.04;82.22
46007;BME280;31738;50.188;8.524;2024-01-27T08:05:03;100769.13;;;3.10;82.72
46007;BME280;31738;50.188;8.524;2024-01-27T08:07:29;100768.78;;;3.13;82.72
46007;BME280;31738;50.188;8.524;2024-01-27T08:09:54;100777.38;;;3.15;82.87
46007;BME280;31738;50.188;8.524;2024-01-27T08:12:22;100767.13;;;3.12;82.40
46007;BME280;31738;50.188;8.524;2024-01-27T08:14:47;100770.44;;;3.14;82.39
46007;BME280;31738;50.188;8.524;2024-01-27T08:17:13;100772.91;;;3.15;82.89
46007;BME280;31738;50.188;8.524;2024-01-27T08:19:39;100767.28;;;3.18;82.38
46007;BME280;31738;50.188;8.524;2024-01-27T08:22:04;100762.41;;;3.22;82.66
46007;BME280;31738;50.188;8.524;2024-01-27T08:24:29;100769.03;;;3.26;82.92
46007;BME280;31738;50.188;8.524;2024-01-27T08:26:55;100773.97;;;3.29;82.93
46007;BME280;31738;50.188;8.524;2024-01-27T08:29:20;100774.28;;;3.34;82.85
46007;BME280;31738;50.188;8.524;2024-01-27T08:31:46;100778.06;;;3.39;83.13
46007;BME280;31738;50.188;8.524;2024-01-27T08:34:11;100778.34;;;3.44;82.84
46007;BME280;31738;50.188;8.524;2024-01-27T08:36:40;100779.63;;;3.48;83.11
46007;BME280;31738;50.188;8.524;2024-01-27T08:39:06;100780.13;;;3.52;83.40
46007;BME280;31738;50.188;8.524;2024-01-27T08:41:37;100794.34;;;3.51;83.53
46007;BME280;31738;50.188;8.524;2024-01-27T08:44:03;100787.13;;;3.45;83.60
46007;BME280;31738;50.188;8.524;2024-01-27T08:46:28;100790.06;;;3.50;83.46
46007;BME280;31738;50.188;8.524;2024-01-27T08:48:54;100794.03;;;3.54;83.83
46007;BME280;31738;50.188;8.524;2024-01-27T08:51:19;100798.16;;;3.57;83.13
46007;BME280;31738;50.188;8.524;2024-01-27T08:53:45;100810.06;;;3.61;83.74
46007;BME280;31738;50.188;8.524;2024-01-27T08:56:17;100797.25;;;3.64;83.81
46007;BME280;31738;50.188;8.524;2024-01-27T08:58:45;100798.47;;;3.62;83.97
46007;BME280;31738;50.188;8.524;2024-01-27T09:01:16;100802.38;;;3.66;84.02
46007;BME280;31738;50.188;8.524;2024-01-27T09:03:41;100807.34;;;3.69;83.73
46007;BME280;31738;50.188;8.524;2024-01-27T09:06:07;100816.03;;;3.77;83.70
46007;BME280;31738;50.188;8.524;2024-01-27T09:08:36;100816.63;;;3.87;84.07
46007;BME280;31738;50.188;8.524;2024-01-27T09:11:04;100816.75;;;3.94;82.97
46007;BME280;31738;50.188;8.524;2024-01-27T09:13:30;100813.22;;;4.01;83.34
46007;BME280;31738;50.188;8.524;2024-01-27T09:15:57;100818.81;;;4.06;83.06
46007;BME280;31738;50.188;8.524;2024-01-27T09:18:23;100823.03;;;4.15;83.58
46007;BME280;31738;50.188;8.524;2024-01-27T09:20:48;100827.53;;;4.29;83.55
46007;BME280;31738;50.188;8.524;2024-01-27T09:23:14;100831.84;;;4.45;83.46
46007;BME280;31738;50.188;8.524;2024-01-27T09:25:39;100838.28;;;4.50;82.52
46007;BME280;31738;50.188;8.524;2024-01-27T09:28:05;100828.28;;;4.52;82.84
46007;BME280;31738;50.188;8.524;2024-01-27T09:30:31;100833.31;;;4.62;83.19
46007;BME280;31738;50.188;8.524;2024-01-27T09:32:56;100839.63;;;4.75;83.20
46007;BME280;31738;50.188;8.524;2024-01-27T09:35:22;100840.19;;;4.85;82.98
46007;BME280;31738;50.188;8.524;2024-01-27T09:37:47;100840.72;;;4.95;82.56
46007;BME280;31738;50.188;8.524;2024-01-27T09:40:13;100846.59;;;5.05;82.47
46007;BME280;31738;50.188;8.524;2024-01-27T09:42:38;100851.97;;;5.12;82.05
46007;BME280;31738;50.188;8.524;2024-01-27T09:45:05;100860.69;;;5.20;82.32
46007;BME280;31738;50.188;8.524;2024-01-27T09:47:30;100846.81;;;5.25;82.39
46007;BME280;31738;50.188;8.524;2024-01-27T09:49:56;100854.25;;;5.29;82.04
46007;BME280;31738;50.188;8.524;2024-01-27T09:52:22;100849.81;;;5.37;82.04
46007;BME280;31738;50.188;8.524;2024-01-27T09:54:48;100854.03;;;5.46;81.69
46007;BME280;31738;50.188;8.524;2024-01-27T09:57:13;100858.97;;;5.49;81.54
46007;BME280;31738;50.188;8.524;2024-01-27T09:59:43;100861.00;;;5.47;81.26
46007;BME280;31738;50.188;8.524;2024-01-27T10:02:11;100863.00;;;5.45;81.44
46007;BME280;31738;50.188;8.524;2024-01-27T10:04:38;100861.19;;;5.45;81.50
46007;BME280;31738;50.188;8.524;2024-01-27T10:07:04;100871.16;;;5.58;81.48
46007;BME280;31738;50.188;8.524;2024-01-27T10:09:29;100866.97;;;5.70;81.36
46007;BME280;31738;50.188;8.524;2024-01-27T10:11:55;100859.28;;;5.81;81.48
46007;BME280;31738;50.188;8.524;2024-01-27T10:14:21;100866.84;;;5.78;80.79
46007;BME280;31738;50.188;8.524;2024-01-27T10:16:47;100859.78;;;5.85;80.83
46007;BME280;31738;50.188;8.524;2024-01-27T10:19:17;100866.03;;;5.98;80.94
46007;BME280;31738;50.188;8.524;2024-01-27T10:21:44;100857.53;;;6.09;80.86
46007;BME280;31738;50.188;8.524;2024-01-27T10:24:09;100858.59;;;6.15;80.48
46007;BME280;31738;50.188;8.524;2024-01-27T10:26:35;100860.88;;;6.18;80.31
46007;BME280;31738;50.188;8.524;2024-01-27T10:29:01;100855.81;;;6.23;80.22
46007;BME280;31738;50.188;8.524;2024-01-27T10:31:36;100863.88;;;6.29;80.05
46007;BME280;31738;50.188;8.524;2024-01-27T10:34:02;100856.91;;;6.35;80.09
46007;BME280;31738;50.188;8.524;2024-01-27T10:36:42;100855.09;;;6.35;78.66
46007;BME280;31738;50.188;8.524;2024-01-27T10:41:46;100854.13;;;6.43;79.38
46007;BME280;31738;50.188;8.524;2024-01-27T10:44:14;100839.00;;;6.50;79.43
46007;BME280;31738;50.188;8.524;2024-01-27T10:46:49;100840.72;;;6.64;79.53
46007;BME280;31738;50.188;8.524;2024-01-27T10:49:15;100830.94;;;6.71;79.17
46007;BME280;31738;50.188;8.524;2024-01-27T10:51:55;100826.59;;;6.70;79.12
46007;BME280;31738;50.188;8.524;2024-01-27T10:54:27;100829.31;;;6.76;78.79
46007;BME280;31738;50.188;8.524;2024-01-27T10:56:55;100824.84;;;6.83;78.15
46007;BME280;31738;50.188;8.524;2024-01-27T10:59:21;100831.84;;;6.91;78.25
46007;BME280;31738;50.188;8.524;2024-01-27T11:01:49;100826.53;;;6.97;78.22
46007;BME280;31738;50.188;8.524;2024-01-27T11:04:17;100827.34;;;6.98;77.99
46007;BME280;31738;50.188;8.524;2024-01-27T11:06:42;100828.41;;;6.97;77.86
46007;BME280;31738;50.188;8.524;2024-01-27T11:09:10;100827.34;;;6.98;77.84
46007;BME280;31738;50.188;8.524;2024-01-27T11:11:37;100835.19;;;7.06;78.16
46007;BME280;31738;50.188;8.524;2024-01-27T11:14:03;100820.81;;;7.07;77.94
46007;BME280;31738;50.188;8.524;2024-01-27T11:16:29;100820.44;;;7.10;77.80
46007;BME280;31738;50.188;8.524;2024-01-27T11:18:54;100815.97;;;7.17;77.93
46007;BME280;31738;50.188;8.524;2024-01-27T11:21:20;100811.03;;;7.21;77.36
46007;BME280;31738;50.188;8.524;2024-01-27T11:23:45;100816.78;;;7.24;77.23
46007;BME280;31738;50.188;8.524;2024-01-27T11:26:20;100825.81;;;7.30;77.07
46007;BME280;31738;50.188;8.524;2024-01-27T11:28:45;100817.81;;;7.30;76.89
46007;BME280;31738;50.188;8.524;2024-01-27T11:31:11;100825.66;;;7.31;76.80
46007;BME280;31738;50.188;8.524;2024-01-27T11:33:44;100824.22;;;7.35;77.12
46007;BME280;31738;50.188;8.524;2024-01-27T11:36:19;100819.50;;;7.37;76.66
46007;BME280;31738;50.188;8.524;2024-01-27T11:38:45;100827.53;;;7.37;76.80
46007;BME280;31738;50.188;8.524;2024-01-27T11:41:11;100831.03;;;7.44;76.72
46007;BME280;31738;50.188;8.524;2024-01-27T11:43:36;100833.91;;;7.49;76.63
46007;BME280;31738;50.188;8.524;2024-01-27T11:46:02;100828.78;;;7.54;76.35
46007;BME280;31738;50.188;8.524;2024-01-27T11:48:27;100829.00;;;7.59;76.56
46007;BME280;31738;50.188;8.524;2024-01-27T11:51:11;100836.41;;;7.70;76.06
46007;BME280;31738;50.188;8.524;2024-01-27T11:53:37;100840.72;;;7.71;76.17
46007;BME280;31738;50.188;8.524;2024-01-27T11:56:06;100836.22;;;7.78;76.45
46007;BME280;31738;50.188;8.524;2024-01-27T11:58:33;100837.47;;;7.82;75.56
46007;BME280;31738;50.188;8.524;2024-01-27T12:00:58;100835.84;;;7.88;75.38
46007;BME280;31738;50.188;8.524;2024-01-27T12:03:25;100836.44;;;7.90;75.18
46007;BME280;31738;50.188;8.524;2024-01-27T12:05:50;100838.91;;;7.91;75.25
46007;BME280;31738;50.188;8.524;2024-01-27T12:08:16;100842.63;;;7.90;74.95
46007;BME280;31738;50.188;8.524;2024-01-27T12:10:42;100846.94;;;7.98;74.39
46007;BME280;31738;50.188;8.524;2024-01-27T12:13:07;100857.84;;;8.03;74.64
46007;BME280;31738;50.188;8.524;2024-01-27T12:15:33;100859.69;;;8.02;74.11
46007;BME280;31738;50.188;8.524;2024-01-27T12:17:58;100861.31;;;8.03;73.81
46007;BME280;31738;50.188;8.524;2024-01-27T12:20:24;100859.28;;;8.05;74.00
46007;BME280;31738;50.188;8.524;2024-01-27T12:23:02;100865.25;;;8.07;73.87
46007;BME280;31738;50.188;8.524;2024-01-27T12:25:27;100867.72;;;8.09;73.87
46007;BME280;31738;50.188;8.524;2024-01-27T12:27:53;100869.97;;;8.12;73.56
46007;BME280;31738;50.188;8.524;2024-01-27T12:30:18;100862.56;;;8.14;73.41
46007;BME280;31738;50.188;8.524;2024-01-27T12:32:44;100865.03;;;8.15;73.49
46007;BME280;31738;50.188;8.524;2024-01-27T12:35:09;100859.69;;;8.15;72.75
46007;BME280;31738;50.188;8.524;2024-01-27T12:37:35;100855.56;;;8.19;73.11
46007;BME280;31738;50.188;8.524;2024-01-27T12:40:01;100857.88;;;8.22;72.93
46007;BME280;31738;50.188;8.524;2024-01-27T12:42:27;100861.56;;;8.21;71.98
46007;BME280;31738;50.188;8.524;2024-01-27T12:44:52;100858.25;;;8.19;72.81
46007;BME280;31738;50.188;8.524;2024-01-27T12:47:18;100857.22;;;8.20;72.41
46007;BME280;31738;50.188;8.524;2024-01-27T12:49:45;100843.84;;;8.20;71.80
46007;BME280;31738;50.188;8.524;2024-01-27T12:52:10;100857.22;;;8.20;71.54
46007;BME280;31738;50.188;8.524;2024-01-27T12:54:36;100854.53;;;8.20;70.36
46007;BME280;31738;50.188;8.524;2024-01-27T12:57:01;100856.19;;;8.21;70.62